Terminal Aerodrome Forecast
Issued by NWS

Home | Current Version | Previous Version | Text Only | Print | Product List | Glossary On
Versions: 1 2 3 4 5 6 7 8 9 10 11 12 13 14
000
FTUS46 KSEW 171120
TAFPAE
TAF
KPAE 171120Z 1712/1812 14018G30KT P6SM SCT020 BKN100
     FM171400 18018G28KT P6SM -RA BKN020 OVC040
     FM172200 25014KT P6SM BKN050
     FM180000 31008KT P6SM SCT060 BKN200
     FM180300 13005KT P6SM SCT060 BKN200=

USA.gov is the U.S. government's official web portal to all federal, state and local government web resources and services.